ESGGESMS

Guest
Details From ESGG - Goteborg Landvetter
To ESMS - Malmo Sturup
Flight Number -
Tags decoded
Created
Modified
Stats Distance 137 nm / 254 km
Max Altitude 0 ft / 0 m
Waypoints 4
Social Downloads 0
Likes 0
Share VATSIM

Download

Looking for another format? Having issues loading an existing format? Contact us
Advertisement - Login to hide

Notes

Requested: ESGG TOPLA L996 SVD ESMS

Route

ESGG TOPLA L996 SVD ESMS

ID Type Via Altitude Latitude Longitude Leg Dist Tot Dist Heading (true) Name
O ESGG APT - 0 ft / 0 m 57.66284˚ 12.27982˚ - 0 nm - Goteborg Landvetter
TOPLA FIX - 0 ft / 0 m 57.13586˚ 12.33894˚ 31 nm 31 nm 177° / 177° -
SVD VOR L996 (AWY-LO) 0 ft / 0 m 56.16886˚ 12.57378˚ 58 nm 90 nm 172° / 172° SVEDA VOR-DME
O ESMS APT - 0 ft / 0 m 55.52888˚ 13.37111˚ 46 nm 137 nm 145° / 145° Malmo Sturup

Altitude Profile

Advertisement - Login to hide

ESGG

Details ICAO ESGG (GOT)
Name Goteborg Landvetter
Region Sweden
Timezone Europe/Stockholm (UTC+1.0)
Stats Elevation 506 ft / 154 m (AMSL)
Location 57.662836° 12.279819°
Runways 1
Magnetic Variation 3.716° E

METAR

ESGG 151950Z 23003KT 9000 MIFG SCT005 M02/M03 Q0993 R03/19//95

Decode

TAF

TAF TAF ESGG 151730Z 1518/1618 29004KT 9999 FEW007 BKN045 TEMPO 1518/1522 BKN006 PROB40 1522/1609 1200 BCFG BKN003 TEMPO 1609/1612 BKN006 TEMPO 1612/1618 2000 -SN BKN006

Decode

Departure Runways

ID Width Length Bearing (true) Bearing (mag) Surface Threshold Offset Overrun Length
03 148 ft / 45 m 10,804 ft / 3,293 m 25.94° 22.22° Asphalt 0 ft / 0 m 207 ft / 63 m
21 148 ft / 45 m 10,804 ft / 3,293 m 205.96° 202.24° Asphalt 0 ft / 0 m 207 ft / 63 m

ESMS

Details ICAO ESMS (MMX)
Name Malmo Sturup
Region Sweden
Timezone Europe/Stockholm (UTC+1.0)
Stats Elevation 236 ft / 72 m (AMSL)
Location 55.528883° 13.371109°
Runways 2
Magnetic Variation 3.964° E

METAR

ESMS 151950Z 28003KT 240V310 9999 FEW011 SCT017 OVC062 02/01 Q0995 R17/29//95

Decode

TAF

TAF ESMS 151707Z 1518/1618 24010KT 9999 BKN015 TEMPO 1518/1602 4000 BR BKN008 TEMPO 1602/1609 2000 -SHRASN BR BKN004 FEW020CB TEMPO 1613/1618 4000 SHRASN BKN008 SCT020CB

Decode

Destination Runways

ID Width Length Bearing (true) Bearing (mag) Surface Threshold Offset Overrun Length
11 59 ft / 18 m 2,609 ft / 795 m 105.31° 101.35° Asphalt 0 ft / 0 m 0 ft / 0 m
17 148 ft / 45 m 9,176 ft / 2,797 m 173.36° 169.40° Asphalt 0 ft / 0 m 98 ft / 30 m
29 59 ft / 18 m 2,609 ft / 795 m 285.32° 281.36° Asphalt 0 ft / 0 m 0 ft / 0 m
35 148 ft / 45 m 9,176 ft / 2,797 m 353.37° 349.41° Asphalt 0 ft / 0 m 98 ft / 30 m

Approach Navaids

Runway Type Ident Frequency Range Bearing (true) Bearing (mag) Slope Elevation
17 Localiser NMS 111.90 MHz 18 nm / 33 km 173.37° 169.40° - 236 ft / 72 m (AMSL)
17 Glidescope NMS 111.90 MHz 10 nm / 19 km 173.37° 169.40° 3.00° 236 ft / 72 m (AMSL)
35 Localiser SMS 108.10 MHz 18 nm / 33 km 353.36° 349.40° - 236 ft / 72 m (AMSL)
35 Glidescope SMS 108.10 MHz 10 nm / 19 km 353.37° 349.40° 3.00° 236 ft / 72 m (AMSL)

Popular Alternatives